Luck, Wisconsin
Current Conditions -  °F | °C
As of 10:35 PM on Friday 24 Oct 2014 (Local Time) from KRZN Reporting Station
Clear Clear  
Wind Chill: 56°   Ceiling: Unl
Heat Index: 56°   Visibility: 10mi
Dew Point: 52°   Wind: 6mph
Humidity: 86%   Direction: 220°SW
Pressure: 29.81"   Gusts: NA
Location:  45.58°N, 92.48°W
Report Text: KRZN 250335Z AUTO 22005KT 10SM CLR 13/11 A2981 RMK AO2 T01330110
Loading
Personal Weather Stations






























Interactive Weather Map
Tropical Storm Tracking
New forecast layout! Learn more

10-Day Weather Forecast

Advertisements
Track Severe Weather on mobile